sensor_id;sensor_type;location;lat;lon;timestamp;P1;durP1;ratioP1;P2;durP2;ratioP2
65641;SDS011;52340;-6.720;108.544;2022-07-10T00:00:31;82.05;;;52.20;;
65641;SDS011;52340;-6.720;108.544;2022-07-10T00:01:33;83.95;;;51.40;;
65641;SDS011;52340;-6.720;108.544;2022-07-10T00:02:35;82.43;;;51.35;;
65641;SDS011;52340;-6.720;108.544;2022-07-10T00:03:37;83.65;;;52.58;;
65641;SDS011;52340;-6.720;108.544;2022-07-10T00:04:39;77.07;;;49.72;;
65641;SDS011;52340;-6.720;108.544;2022-07-10T00:05:44;78.70;;;49.78;;
65641;SDS011;52340;-6.720;108.544;2022-07-10T00:06:45;83.10;;;50.00;;
65641;SDS011;52340;-6.720;108.544;2022-07-10T00:07:47;76.22;;;49.28;;
65641;SDS011;52340;-6.720;108.544;2022-07-10T00:08:49;73.72;;;47.08;;
65641;SDS011;52340;-6.720;108.544;2022-07-10T00:09:51;72.28;;;47.55;;
65641;SDS011;52340;-6.720;108.544;2022-07-10T00:10:53;74.50;;;46.47;;
65641;SDS011;52340;-6.720;108.544;2022-07-10T00:11:55;69.18;;;46.40;;
65641;SDS011;52340;-6.720;108.544;2022-07-10T00:12:56;70.18;;;45.03;;
65641;SDS011;52340;-6.720;108.544;2022-07-10T00:14:00;65.68;;;42.85;;
65641;SDS011;52340;-6.720;108.544;2022-07-10T00:15:02;63.33;;;41.72;;
65641;SDS011;52340;-6.720;108.544;2022-07-10T00:16:04;63.63;;;39.38;;
65641;SDS011;52340;-6.720;108.544;2022-07-10T00:17:06;68.68;;;40.47;;
65641;SDS011;52340;-6.720;108.544;2022-07-10T00:18:08;64.70;;;41.65;;
65641;SDS011;52340;-6.720;108.544;2022-07-10T00:19:10;59.75;;;38.97;;
65641;SDS011;52340;-6.720;108.544;2022-07-10T00:20:12;63.17;;;38.20;;
65641;SDS011;52340;-6.720;108.544;2022-07-10T00:21:14;62.55;;;39.45;;
65641;SDS011;52340;-6.720;108.544;2022-07-10T00:22:18;59.10;;;38.13;;
65641;SDS011;52340;-6.720;108.544;2022-07-10T00:23:20;55.75;;;36.28;;
65641;SDS011;52340;-6.720;108.544;2022-07-10T00:24:22;57.50;;;36.70;;
65641;SDS011;52340;-6.720;108.544;2022-07-10T00:25:24;57.28;;;36.70;;
65641;SDS011;52340;-6.720;108.544;2022-07-10T00:26:25;54.85;;;35.92;;
65641;SDS011;52340;-6.720;108.544;2022-07-10T00:27:27;54.78;;;34.60;;
65641;SDS011;52340;-6.720;108.544;2022-07-10T00:28:29;49.20;;;31.15;;
65641;SDS011;52340;-6.720;108.544;2022-07-10T00:29:34;49.28;;;31.98;;
65641;SDS011;52340;-6.720;108.544;2022-07-10T00:30:36;53.58;;;31.67;;
65641;SDS011;52340;-6.720;108.544;2022-07-10T00:31:37;48.08;;;28.73;;
65641;SDS011;52340;-6.720;108.544;2022-07-10T00:32:39;43.00;;;27.95;;
65641;SDS011;52340;-6.720;108.544;2022-07-10T00:33:41;43.80;;;26.83;;
65641;SDS011;52340;-6.720;108.544;2022-07-10T00:34:45;43.28;;;27.15;;
65641;SDS011;52340;-6.720;108.544;2022-07-10T00:35:48;42.20;;;27.02;;
65641;SDS011;52340;-6.720;108.544;2022-07-10T00:36:50;42.60;;;25.77;;
65641;SDS011;52340;-6.720;108.544;2022-07-10T00:37:51;41.78;;;26.80;;
65641;SDS011;52340;-6.720;108.544;2022-07-10T00:38:53;33.80;;;21.90;;
65641;SDS011;52340;-6.720;108.544;2022-07-10T00:39:57;35.63;;;23.55;;
65641;SDS011;52340;-6.720;108.544;2022-07-10T00:40:59;35.17;;;21.85;;
65641;SDS011;52340;-6.720;108.544;2022-07-10T00:42:07;33.08;;;21.10;;
65641;SDS011;52340;-6.720;108.544;2022-07-10T00:43:09;33.42;;;18.23;;
65641;SDS011;52340;-6.720;108.544;2022-07-10T00:44:11;30.45;;;18.70;;
65641;SDS011;52340;-6.720;108.544;2022-07-10T00:45:15;31.98;;;18.17;;
65641;SDS011;52340;-6.720;108.544;2022-07-10T00:46:16;26.80;;;17.02;;
65641;SDS011;52340;-6.720;108.544;2022-07-10T00:47:18;25.73;;;16.88;;
65641;SDS011;52340;-6.720;108.544;2022-07-10T00:48:20;24.55;;;14.45;;
65641;SDS011;52340;-6.720;108.544;2022-07-10T00:49:22;23.92;;;15.77;;
65641;SDS011;52340;-6.720;108.544;2022-07-10T00:50:23;23.45;;;14.32;;
65641;SDS011;52340;-6.720;108.544;2022-07-10T00:51:28;23.65;;;13.63;;
65641;SDS011;52340;-6.720;108.544;2022-07-10T00:52:30;20.40;;;12.07;;
65641;SDS011;52340;-6.720;108.544;2022-07-10T00:53:32;16.98;;;10.80;;
65641;SDS011;52340;-6.720;108.544;2022-07-10T00:54:34;16.25;;;10.57;;
65641;SDS011;52340;-6.720;108.544;2022-07-10T00:55:40;16.75;;;9.75;;
65641;SDS011;52340;-6.720;108.544;2022-07-10T00:56:43;15.90;;;10.07;;
65641;SDS011;52340;-6.720;108.544;2022-07-10T00:57:45;18.80;;;10.40;;
65641;SDS011;52340;-6.720;108.544;2022-07-10T00:58:47;17.23;;;10.70;;
65641;SDS011;52340;-6.720;108.544;2022-07-10T00:59:49;19.17;;;10.20;;
65641;SDS011;52340;-6.720;108.544;2022-07-10T01:00:52;16.30;;;9.80;;
65641;SDS011;52340;-6.720;108.544;2022-07-10T01:01:54;15.73;;;9.73;;
65641;SDS011;52340;-6.720;108.544;2022-07-10T01:02:56;17.55;;;10.07;;
65641;SDS011;52340;-6.720;108.544;2022-07-10T01:03:58;18.23;;;9.38;;
65641;SDS011;52340;-6.720;108.544;2022-07-10T01:05:00;14.10;;;8.88;;
65641;SDS011;52340;-6.720;108.544;2022-07-10T01:06:01;15.75;;;8.88;;
65641;SDS011;52340;-6.720;108.544;2022-07-10T01:07:04;14.52;;;8.13;;
65641;SDS011;52340;-6.720;108.544;2022-07-10T01:08:06;14.35;;;8.30;;
65641;SDS011;52340;-6.720;108.544;2022-07-10T01:09:07;12.77;;;7.93;;
65641;SDS011;52340;-6.720;108.544;2022-07-10T01:10:09;15.13;;;8.50;;
65641;SDS011;52340;-6.720;108.544;2022-07-10T01:11:12;14.50;;;8.45;;
65641;SDS011;52340;-6.720;108.544;2022-07-10T01:12:14;13.82;;;8.57;;
65641;SDS011;52340;-6.720;108.544;2022-07-10T01:13:16;14.82;;;9.00;;
65641;SDS011;52340;-6.720;108.544;2022-07-10T01:14:19;17.25;;;9.80;;
65641;SDS011;52340;-6.720;108.544;2022-07-10T01:15:24;15.95;;;9.75;;
65641;SDS011;52340;-6.720;108.544;2022-07-10T01:16:27;15.15;;;8.82;;
65641;SDS011;52340;-6.720;108.544;2022-07-10T01:17:29;16.60;;;9.20;;
65641;SDS011;52340;-6.720;108.544;2022-07-10T01:18:32;15.35;;;8.45;;
65641;SDS011;52340;-6.720;108.544;2022-07-10T01:19:33;16.30;;;9.02;;
65641;SDS011;52340;-6.720;108.544;2022-07-10T01:20:35;15.05;;;8.88;;
65641;SDS011;52340;-6.720;108.544;2022-07-10T01:21:39;15.00;;;8.32;;
65641;SDS011;52340;-6.720;108.544;2022-07-10T01:22:40;14.18;;;7.82;;
65641;SDS011;52340;-6.720;108.544;2022-07-10T01:23:42;15.10;;;8.10;;
65641;SDS011;52340;-6.720;108.544;2022-07-10T01:24:44;14.93;;;8.70;;
65641;SDS011;52340;-6.720;108.544;2022-07-10T01:25:46;14.30;;;7.75;;
65641;SDS011;52340;-6.720;108.544;2022-07-10T01:26:47;13.25;;;7.40;;
65641;SDS011;52340;-6.720;108.544;2022-07-10T01:27:49;11.05;;;6.68;;
65641;SDS011;52340;-6.720;108.544;2022-07-10T01:28:52;12.20;;;7.63;;
65641;SDS011;52340;-6.720;108.544;2022-07-10T01:29:54;13.40;;;7.05;;
65641;SDS011;52340;-6.720;108.544;2022-07-10T01:31:01;10.75;;;6.60;;
65641;SDS011;52340;-6.720;108.544;2022-07-10T01:32:05;10.88;;;6.40;;
65641;SDS011;52340;-6.720;108.544;2022-07-10T01:33:10;12.27;;;7.03;;
65641;SDS011;52340;-6.720;108.544;2022-07-10T01:34:12;11.98;;;7.22;;
65641;SDS011;52340;-6.720;108.544;2022-07-10T01:35:13;13.65;;;8.27;;
65641;SDS011;52340;-6.720;108.544;2022-07-10T01:36:16;12.30;;;7.38;;
65641;SDS011;52340;-6.720;108.544;2022-07-10T01:37:20;12.85;;;7.53;;
65641;SDS011;52340;-6.720;108.544;2022-07-10T01:38:22;10.75;;;6.18;;
65641;SDS011;52340;-6.720;108.544;2022-07-10T01:39:24;10.88;;;6.22;;
65641;SDS011;52340;-6.720;108.544;2022-07-10T01:40:25;10.20;;;6.35;;
65641;SDS011;52340;-6.720;108.544;2022-07-10T01:41:30;10.90;;;6.25;;
65641;SDS011;52340;-6.720;108.544;2022-07-10T01:42:32;11.95;;;6.65;;
65641;SDS011;52340;-6.720;108.544;2022-07-10T01:43:36;11.73;;;7.13;;
65641;SDS011;52340;-6.720;108.544;2022-07-10T01:44:38;13.13;;;7.93;;
65641;SDS011;52340;-6.720;108.544;2022-07-10T01:45:42;10.32;;;6.63;;
65641;SDS011;52340;-6.720;108.544;2022-07-10T01:46:44;12.68;;;7.43;;
65641;SDS011;52340;-6.720;108.544;2022-07-10T01:47:46;9.77;;;6.18;;
65641;SDS011;52340;-6.720;108.544;2022-07-10T01:48:48;10.50;;;6.57;;
65641;SDS011;52340;-6.720;108.544;2022-07-10T01:49:50;11.23;;;6.25;;
65641;SDS011;52340;-6.720;108.544;2022-07-10T01:50:52;12.82;;;6.97;;
65641;SDS011;52340;-6.720;108.544;2022-07-10T01:51:54;9.82;;;6.43;;
65641;SDS011;52340;-6.720;108.544;2022-07-10T01:53:00;10.60;;;6.40;;
65641;SDS011;52340;-6.720;108.544;2022-07-10T01:54:02;11.20;;;6.65;;
65641;SDS011;52340;-6.720;108.544;2022-07-10T01:55:04;11.77;;;6.82;;
65641;SDS011;52340;-6.720;108.544;2022-07-10T01:56:07;11.00;;;6.65;;
65641;SDS011;52340;-6.720;108.544;2022-07-10T01:57:22;12.90;;;7.07;;
65641;SDS011;52340;-6.720;108.544;2022-07-10T01:58:23;11.55;;;6.97;;
65641;SDS011;52340;-6.720;108.544;2022-07-10T01:59:25;12.27;;;6.85;;
65641;SDS011;52340;-6.720;108.544;2022-07-10T02:00:27;11.70;;;7.00;;
65641;SDS011;52340;-6.720;108.544;2022-07-10T02:01:31;10.95;;;6.47;;
65641;SDS011;52340;-6.720;108.544;2022-07-10T02:02:35;11.82;;;6.78;;
65641;SDS011;52340;-6.720;108.544;2022-07-10T02:03:54;13.35;;;7.85;;
65641;SDS011;52340;-6.720;108.544;2022-07-10T02:04:56;11.48;;;7.00;;
65641;SDS011;52340;-6.720;108.544;2022-07-10T02:05:58;11.75;;;6.82;;
65641;SDS011;52340;-6.720;108.544;2022-07-10T02:07:00;14.43;;;7.22;;
65641;SDS011;52340;-6.720;108.544;2022-07-10T02:08:04;13.93;;;7.68;;
65641;SDS011;52340;-6.720;108.544;2022-07-10T02:09:08;12.07;;;7.30;;
65641;SDS011;52340;-6.720;108.544;2022-07-10T02:10:09;11.30;;;7.00;;
65641;SDS011;52340;-6.720;108.544;2022-07-10T02:11:11;12.20;;;7.30;;
65641;SDS011;52340;-6.720;108.544;2022-07-10T02:12:13;12.77;;;7.30;;
65641;SDS011;52340;-6.720;108.544;2022-07-10T02:13:15;12.52;;;7.20;;
65641;SDS011;52340;-6.720;108.544;2022-07-10T02:14:17;10.98;;;6.50;;
65641;SDS011;52340;-6.720;108.544;2022-07-10T02:15:19;13.43;;;7.30;;
65641;SDS011;52340;-6.720;108.544;2022-07-10T02:16:21;12.10;;;6.93;;
65641;SDS011;52340;-6.720;108.544;2022-07-10T02:17:23;14.02;;;6.88;;
65641;SDS011;52340;-6.720;108.544;2022-07-10T02:18:24;11.48;;;6.50;;
65641;SDS011;52340;-6.720;108.544;2022-07-10T02:19:26;12.38;;;6.95;;
65641;SDS011;52340;-6.720;108.544;2022-07-10T02:20:28;11.07;;;6.63;;
65641;SDS011;52340;-6.720;108.544;2022-07-10T02:21:30;12.38;;;7.05;;
65641;SDS011;52340;-6.720;108.544;2022-07-10T02:22:35;12.10;;;7.15;;
65641;SDS011;52340;-6.720;108.544;2022-07-10T02:23:38;12.52;;;6.80;;
65641;SDS011;52340;-6.720;108.544;2022-07-10T02:24:42;13.23;;;6.95;;
65641;SDS011;52340;-6.720;108.544;2022-07-10T02:25:44;13.40;;;7.35;;
65641;SDS011;52340;-6.720;108.544;2022-07-10T02:26:49;13.32;;;7.28;;
65641;SDS011;52340;-6.720;108.544;2022-07-10T02:27:50;11.60;;;7.15;;
65641;SDS011;52340;-6.720;108.544;2022-07-10T02:28:52;11.63;;;7.10;;
65641;SDS011;52340;-6.720;108.544;2022-07-10T02:29:54;12.68;;;7.38;;
65641;SDS011;52340;-6.720;108.544;2022-07-10T02:30:56;12.23;;;7.50;;
65641;SDS011;52340;-6.720;108.544;2022-07-10T02:31:58;11.18;;;7.38;;
65641;SDS011;52340;-6.720;108.544;2022-07-10T02:33:00;12.43;;;7.65;;
65641;SDS011;52340;-6.720;108.544;2022-07-10T02:34:05;13.00;;;7.10;;
65641;SDS011;52340;-6.720;108.544;2022-07-10T02:35:07;11.80;;;7.35;;
65641;SDS011;52340;-6.720;108.544;2022-07-10T02:36:09;13.63;;;7.20;;
65641;SDS011;52340;-6.720;108.544;2022-07-10T02:37:12;13.40;;;7.22;;
65641;SDS011;52340;-6.720;108.544;2022-07-10T02:38:14;13.98;;;7.43;;
65641;SDS011;52340;-6.720;108.544;2022-07-10T02:39:17;12.80;;;7.45;;
65641;SDS011;52340;-6.720;108.544;2022-07-10T02:40:19;12.02;;;7.45;;
65641;SDS011;52340;-6.720;108.544;2022-07-10T02:41:23;12.10;;;7.03;;
65641;SDS011;52340;-6.720;108.544;2022-07-10T02:42:25;12.80;;;7.68;;
65641;SDS011;52340;-6.720;108.544;2022-07-10T02:43:27;11.88;;;7.47;;
65641;SDS011;52340;-6.720;108.544;2022-07-10T02:44:29;15.88;;;7.90;;
65641;SDS011;52340;-6.720;108.544;2022-07-10T02:45:30;11.98;;;7.38;;
65641;SDS011;52340;-6.720;108.544;2022-07-10T02:46:32;14.20;;;7.35;;
65641;SDS011;52340;-6.720;108.544;2022-07-10T02:47:37;10.77;;;6.88;;
65641;SDS011;52340;-6.720;108.544;2022-07-10T02:48:39;10.88;;;6.78;;
65641;SDS011;52340;-6.720;108.544;2022-07-10T02:49:43;11.70;;;6.80;;
65641;SDS011;52340;-6.720;108.544;2022-07-10T02:50:44;13.45;;;7.00;;
65641;SDS011;52340;-6.720;108.544;2022-07-10T02:51:46;12.05;;;6.90;;
65641;SDS011;52340;-6.720;108.544;2022-07-10T02:52:48;11.27;;;6.95;;
65641;SDS011;52340;-6.720;108.544;2022-07-10T02:53:50;11.20;;;6.60;;
65641;SDS011;52340;-6.720;108.544;2022-07-10T02:54:55;11.30;;;6.78;;
65641;SDS011;52340;-6.720;108.544;2022-07-10T02:55:57;12.10;;;6.80;;
65641;SDS011;52340;-6.720;108.544;2022-07-10T02:56:59;14.25;;;6.90;;
65641;SDS011;52340;-6.720;108.544;2022-07-10T02:58:01;11.45;;;6.65;;
65641;SDS011;52340;-6.720;108.544;2022-07-10T02:59:03;12.75;;;6.47;;
65641;SDS011;52340;-6.720;108.544;2022-07-10T03:00:08;13.40;;;7.53;;
65641;SDS011;52340;-6.720;108.544;2022-07-10T03:01:11;14.20;;;7.22;;
65641;SDS011;52340;-6.720;108.544;2022-07-10T03:02:12;12.05;;;7.45;;
65641;SDS011;52340;-6.720;108.544;2022-07-10T03:03:14;12.40;;;7.15;;
65641;SDS011;52340;-6.720;108.544;2022-07-10T03:04:16;12.68;;;7.13;;
65641;SDS011;52340;-6.720;108.544;2022-07-10T03:05:18;12.52;;;6.80;;
65641;SDS011;52340;-6.720;108.544;2022-07-10T03:06:20;11.80;;;6.78;;
65641;SDS011;52340;-6.720;108.544;2022-07-10T03:07:21;10.73;;;6.97;;
65641;SDS011;52340;-6.720;108.544;2022-07-10T03:08:25;12.57;;;7.15;;
65641;SDS011;52340;-6.720;108.544;2022-07-10T03:09:29;12.05;;;7.05;;
65641;SDS011;52340;-6.720;108.544;2022-07-10T03:10:32;11.60;;;7.22;;
65641;SDS011;52340;-6.720;108.544;2022-07-10T03:11:34;12.23;;;7.28;;
65641;SDS011;52340;-6.720;108.544;2022-07-10T03:12:36;12.60;;;7.03;;
65641;SDS011;52340;-6.720;108.544;2022-07-10T03:13:40;11.98;;;7.18;;
65641;SDS011;52340;-6.720;108.544;2022-07-10T03:14:42;12.27;;;6.90;;
65641;SDS011;52340;-6.720;108.544;2022-07-10T03:15:44;11.60;;;7.22;;
65641;SDS011;52340;-6.720;108.544;2022-07-10T03:16:45;12.77;;;7.32;;
65641;SDS011;52340;-6.720;108.544;2022-07-10T03:17:47;12.48;;;7.30;;
65641;SDS011;52340;-6.720;108.544;2022-07-10T03:18:49;12.38;;;7.00;;
65641;SDS011;52340;-6.720;108.544;2022-07-10T03:19:51;11.65;;;7.45;;
65641;SDS011;52340;-6.720;108.544;2022-07-10T03:20:53;11.02;;;7.18;;
65641;SDS011;52340;-6.720;108.544;2022-07-10T03:21:55;14.55;;;7.38;;
65641;SDS011;52340;-6.720;108.544;2022-07-10T03:22:57;11.95;;;7.30;;
65641;SDS011;52340;-6.720;108.544;2022-07-10T03:23:58;12.23;;;7.40;;
65641;SDS011;52340;-6.720;108.544;2022-07-10T03:25:00;11.65;;;6.93;;
65641;SDS011;52340;-6.720;108.544;2022-07-10T03:26:04;10.32;;;6.68;;
65641;SDS011;52340;-6.720;108.544;2022-07-10T03:27:08;11.43;;;7.10;;
65641;SDS011;52340;-6.720;108.544;2022-07-10T03:28:10;11.57;;;6.88;;
65641;SDS011;52340;-6.720;108.544;2022-07-10T03:29:12;10.95;;;6.57;;
65641;SDS011;52340;-6.720;108.544;2022-07-10T03:30:14;12.65;;;7.22;;
65641;SDS011;52340;-6.720;108.544;2022-07-10T03:31:15;12.68;;;7.07;;
65641;SDS011;52340;-6.720;108.544;2022-07-10T03:32:17;12.27;;;7.15;;
65641;SDS011;52340;-6.720;108.544;2022-07-10T03:33:19;11.48;;;6.82;;
65641;SDS011;52340;-6.720;108.544;2022-07-10T03:34:23;11.90;;;7.10;;
65641;SDS011;52340;-6.720;108.544;2022-07-10T03:35:25;14.20;;;7.25;;
65641;SDS011;52340;-6.720;108.544;2022-07-10T03:36:30;11.80;;;7.18;;
65641;SDS011;52340;-6.720;108.544;2022-07-10T03:37:35;13.13;;;7.22;;
65641;SDS011;52340;-6.720;108.544;2022-07-10T03:38:37;13.10;;;7.20;;
65641;SDS011;52340;-6.720;108.544;2022-07-10T03:39:39;11.63;;;7.18;;
65641;SDS011;52340;-6.720;108.544;2022-07-10T03:40:41;13.55;;;7.35;;
65641;SDS011;52340;-6.720;108.544;2022-07-10T03:41:48;13.65;;;7.10;;
65641;SDS011;52340;-6.720;108.544;2022-07-10T03:42:50;12.20;;;6.80;;
65641;SDS011;52340;-6.720;108.544;2022-07-10T03:43:51;11.38;;;6.93;;
65641;SDS011;52340;-6.720;108.544;2022-07-10T03:44:53;11.38;;;6.93;;
65641;SDS011;52340;-6.720;108.544;2022-07-10T03:45:56;10.82;;;7.10;;
65641;SDS011;52340;-6.720;108.544;2022-07-10T03:46:58;11.75;;;7.10;;
65641;SDS011;52340;-6.720;108.544;2022-07-10T03:48:01;12.13;;;7.35;;
65641;SDS011;52340;-6.720;108.544;2022-07-10T03:49:04;11.60;;;7.45;;
65641;SDS011;52340;-6.720;108.544;2022-07-10T03:50:06;11.43;;;7.40;;
65641;SDS011;52340;-6.720;108.544;2022-07-10T03:51:08;12.38;;;7.70;;
65641;SDS011;52340;-6.720;108.544;2022-07-10T03:52:13;13.43;;;7.60;;
65641;SDS011;52340;-6.720;108.544;2022-07-10T03:53:16;11.68;;;7.47;;
65641;SDS011;52340;-6.720;108.544;2022-07-10T03:54:18;12.20;;;7.18;;
65641;SDS011;52340;-6.720;108.544;2022-07-10T03:55:20;13.60;;;7.10;;
65641;SDS011;52340;-6.720;108.544;2022-07-10T03:57:26;10.60;;;7.10;;
65641;SDS011;52340;-6.720;108.544;2022-07-10T03:58:28;13.23;;;7.70;;
65641;SDS011;52340;-6.720;108.544;2022-07-10T03:59:30;9.98;;;7.15;;
65641;SDS011;52340;-6.720;108.544;2022-07-10T04:00:32;15.10;;;7.82;;
65641;SDS011;52340;-6.720;108.544;2022-07-10T04:01:34;12.20;;;7.80;;
65641;SDS011;52340;-6.720;108.544;2022-07-10T04:02:37;12.00;;;7.68;;
65641;SDS011;52340;-6.720;108.544;2022-07-10T04:03:39;11.98;;;7.60;;
65641;SDS011;52340;-6.720;108.544;2022-07-10T04:04:40;11.98;;;7.47;;
65641;SDS011;52340;-6.720;108.544;2022-07-10T04:05:42;12.43;;;7.32;;
65641;SDS011;52340;-6.720;108.544;2022-07-10T04:06:44;11.55;;;7.40;;
65641;SDS011;52340;-6.720;108.544;2022-07-10T04:07:46;14.10;;;8.15;;
65641;SDS011;52340;-6.720;108.544;2022-07-10T04:08:50;11.50;;;7.65;;
65641;SDS011;52340;-6.720;108.544;2022-07-10T04:09:52;12.80;;;7.80;;
65641;SDS011;52340;-6.720;108.544;2022-07-10T04:10:54;12.27;;;8.15;;
65641;SDS011;52340;-6.720;108.544;2022-07-10T04:11:56;13.00;;;7.65;;
65641;SDS011;52340;-6.720;108.544;2022-07-10T04:12:59;13.90;;;8.48;;
65641;SDS011;52340;-6.720;108.544;2022-07-10T04:14:01;12.60;;;8.05;;
65641;SDS011;52340;-6.720;108.544;2022-07-10T04:15:03;14.10;;;7.75;;
65641;SDS011;52340;-6.720;108.544;2022-07-10T04:16:06;13.10;;;7.57;;
65641;SDS011;52340;-6.720;108.544;2022-07-10T04:17:08;13.32;;;7.50;;
65641;SDS011;52340;-6.720;108.544;2022-07-10T04:18:10;12.45;;;7.93;;
65641;SDS011;52340;-6.720;108.544;2022-07-10T04:19:12;12.15;;;7.90;;
65641;SDS011;52340;-6.720;108.544;2022-07-10T04:20:14;14.52;;;8.15;;
65641;SDS011;52340;-6.720;108.544;2022-07-10T04:21:17;11.93;;;7.70;;
65641;SDS011;52340;-6.720;108.544;2022-07-10T04:22:19;14.38;;;8.27;;
65641;SDS011;52340;-6.720;108.544;2022-07-10T04:23:21;13.73;;;8.07;;
65641;SDS011;52340;-6.720;108.544;2022-07-10T04:24:22;12.40;;;8.13;;
65641;SDS011;52340;-6.720;108.544;2022-07-10T04:25:24;12.00;;;8.30;;
65641;SDS011;52340;-6.720;108.544;2022-07-10T04:26:26;13.45;;;8.80;;
65641;SDS011;52340;-6.720;108.544;2022-07-10T04:27:28;13.98;;;8.55;;
65641;SDS011;52340;-6.720;108.544;2022-07-10T04:28:34;13.45;;;8.80;;
65641;SDS011;52340;-6.720;108.544;2022-07-10T04:29:36;12.52;;;8.30;;
65641;SDS011;52340;-6.720;108.544;2022-07-10T04:30:40;14.32;;;9.20;;
65641;SDS011;52340;-6.720;108.544;2022-07-10T04:31:44;13.20;;;8.77;;
65641;SDS011;52340;-6.720;108.544;2022-07-10T04:32:46;13.70;;;8.65;;
65641;SDS011;52340;-6.720;108.544;2022-07-10T04:33:48;16.52;;;9.20;;
65641;SDS011;52340;-6.720;108.544;2022-07-10T04:34:50;15.82;;;9.18;;
65641;SDS011;52340;-6.720;108.544;2022-07-10T04:35:52;18.38;;;9.40;;
65641;SDS011;52340;-6.720;108.544;2022-07-10T04:36:54;14.98;;;9.20;;
65641;SDS011;52340;-6.720;108.544;2022-07-10T04:37:56;12.63;;;8.63;;
65641;SDS011;52340;-6.720;108.544;2022-07-10T04:38:58;14.85;;;8.63;;
65641;SDS011;52340;-6.720;108.544;2022-07-10T04:39:59;14.65;;;8.65;;
65641;SDS011;52340;-6.720;108.544;2022-07-10T04:41:01;16.73;;;9.05;;
65641;SDS011;52340;-6.720;108.544;2022-07-10T04:42:04;13.63;;;9.02;;
65641;SDS011;52340;-6.720;108.544;2022-07-10T04:43:06;12.85;;;8.55;;
65641;SDS011;52340;-6.720;108.544;2022-07-10T04:44:10;14.27;;;9.40;;
65641;SDS011;52340;-6.720;108.544;2022-07-10T04:45:11;16.27;;;9.68;;
65641;SDS011;52340;-6.720;108.544;2022-07-10T04:46:13;16.33;;;9.05;;
65641;SDS011;52340;-6.720;108.544;2022-07-10T04:47:18;15.95;;;9.05;;
65641;SDS011;52340;-6.720;108.544;2022-07-10T04:48:27;14.52;;;9.20;;
65641;SDS011;52340;-6.720;108.544;2022-07-10T04:49:29;13.85;;;9.05;;
65641;SDS011;52340;-6.720;108.544;2022-07-10T04:50:31;16.00;;;9.27;;
65641;SDS011;52340;-6.720;108.544;2022-07-10T04:51:33;15.02;;;9.40;;
65641;SDS011;52340;-6.720;108.544;2022-07-10T04:52:35;14.50;;;9.18;;
65641;SDS011;52340;-6.720;108.544;2022-07-10T04:53:36;13.68;;;8.73;;
65641;SDS011;52340;-6.720;108.544;2022-07-10T04:54:38;14.82;;;9.32;;
65641;SDS011;52340;-6.720;108.544;2022-07-10T04:55:40;14.85;;;9.40;;
65641;SDS011;52340;-6.720;108.544;2022-07-10T04:56:45;15.20;;;9.18;;
65641;SDS011;52340;-6.720;108.544;2022-07-10T04:57:47;14.95;;;8.90;;
65641;SDS011;52340;-6.720;108.544;2022-07-10T04:58:48;14.20;;;9.10;;
65641;SDS011;52340;-6.720;108.544;2022-07-10T04:59:52;14.25;;;9.30;;
65641;SDS011;52340;-6.720;108.544;2022-07-10T05:00:54;15.40;;;9.70;;
65641;SDS011;52340;-6.720;108.544;2022-07-10T05:01:58;13.07;;;9.40;;
65641;SDS011;52340;-6.720;108.544;2022-07-10T05:02:59;16.30;;;9.45;;
65641;SDS011;52340;-6.720;108.544;2022-07-10T05:04:01;15.45;;;10.00;;
65641;SDS011;52340;-6.720;108.544;2022-07-10T05:05:03;16.50;;;10.43;;
65641;SDS011;52340;-6.720;108.544;2022-07-10T05:06:06;14.18;;;9.45;;
65641;SDS011;52340;-6.720;108.544;2022-07-10T05:07:08;16.13;;;9.77;;
65641;SDS011;52340;-6.720;108.544;2022-07-10T05:08:09;14.07;;;10.00;;
65641;SDS011;52340;-6.720;108.544;2022-07-10T05:09:11;16.10;;;10.20;;
65641;SDS011;52340;-6.720;108.544;2022-07-10T05:10:13;15.30;;;9.75;;
65641;SDS011;52340;-6.720;108.544;2022-07-10T05:11:15;15.02;;;10.25;;
65641;SDS011;52340;-6.720;108.544;2022-07-10T05:12:17;15.55;;;10.45;;
65641;SDS011;52340;-6.720;108.544;2022-07-10T05:13:19;16.33;;;10.20;;
65641;SDS011;52340;-6.720;108.544;2022-07-10T05:14:21;16.35;;;10.43;;
65641;SDS011;52340;-6.720;108.544;2022-07-10T05:15:24;16.30;;;10.45;;
65641;SDS011;52340;-6.720;108.544;2022-07-10T05:16:26;15.10;;;10.30;;
65641;SDS011;52340;-6.720;108.544;2022-07-10T05:17:28;19.63;;;10.00;;
65641;SDS011;52340;-6.720;108.544;2022-07-10T05:18:30;14.25;;;9.68;;
65641;SDS011;52340;-6.720;108.544;2022-07-10T05:19:31;13.20;;;9.40;;
65641;SDS011;52340;-6.720;108.544;2022-07-10T05:20:33;15.18;;;9.20;;
65641;SDS011;52340;-6.720;108.544;2022-07-10T05:21:44;15.27;;;9.00;;
65641;SDS011;52340;-6.720;108.544;2022-07-10T05:22:49;14.65;;;9.02;;
65641;SDS011;52340;-6.720;108.544;2022-07-10T05:23:51;14.45;;;9.30;;
65641;SDS011;52340;-6.720;108.544;2022-07-10T05:24:53;13.45;;;9.05;;
65641;SDS011;52340;-6.720;108.544;2022-07-10T05:25:54;15.23;;;9.43;;
65641;SDS011;52340;-6.720;108.544;2022-07-10T05:26:56;15.10;;;9.30;;
65641;SDS011;52340;-6.720;108.544;2022-07-10T05:27:58;15.15;;;9.15;;
65641;SDS011;52340;-6.720;108.544;2022-07-10T05:29:00;16.20;;;9.40;;
65641;SDS011;52340;-6.720;108.544;2022-07-10T05:30:05;15.25;;;9.60;;
65641;SDS011;52340;-6.720;108.544;2022-07-10T05:31:09;16.25;;;9.60;;
65641;SDS011;52340;-6.720;108.544;2022-07-10T05:32:11;15.63;;;9.07;;
65641;SDS011;52340;-6.720;108.544;2022-07-10T05:33:13;15.10;;;9.27;;
65641;SDS011;52340;-6.720;108.544;2022-07-10T05:34:14;13.98;;;9.32;;
65641;SDS011;52340;-6.720;108.544;2022-07-10T05:35:16;15.43;;;9.57;;
65641;SDS011;52340;-6.720;108.544;2022-07-10T05:36:18;15.95;;;9.45;;
65641;SDS011;52340;-6.720;108.544;2022-07-10T05:37:20;15.18;;;9.00;;
65641;SDS011;52340;-6.720;108.544;2022-07-10T05:38:25;13.85;;;9.20;;
65641;SDS011;52340;-6.720;108.544;2022-07-10T05:39:30;14.52;;;9.32;;
65641;SDS011;52340;-6.720;108.544;2022-07-10T05:40:32;15.70;;;9.35;;
65641;SDS011;52340;-6.720;108.544;2022-07-10T05:41:34;14.32;;;9.05;;
65641;SDS011;52340;-6.720;108.544;2022-07-10T05:42:36;14.52;;;9.05;;
65641;SDS011;52340;-6.720;108.544;2022-07-10T05:43:37;13.57;;;8.38;;
65641;SDS011;52340;-6.720;108.544;2022-07-10T05:44:39;13.82;;;8.65;;
65641;SDS011;52340;-6.720;108.544;2022-07-10T05:45:41;15.13;;;9.48;;
65641;SDS011;52340;-6.720;108.544;2022-07-10T05:46:48;13.98;;;9.55;;
65641;SDS011;52340;-6.720;108.544;2022-07-10T05:47:50;15.25;;;9.75;;
65641;SDS011;52340;-6.720;108.544;2022-07-10T05:48:54;16.50;;;10.25;;
65641;SDS011;52340;-6.720;108.544;2022-07-10T05:50:00;14.95;;;9.40;;
65641;SDS011;52340;-6.720;108.544;2022-07-10T05:51:05;14.70;;;9.82;;
65641;SDS011;52340;-6.720;108.544;2022-07-10T05:52:07;14.38;;;9.23;;
65641;SDS011;52340;-6.720;108.544;2022-07-10T05:53:11;14.43;;;9.35;;
65641;SDS011;52340;-6.720;108.544;2022-07-10T05:54:12;12.98;;;9.32;;
65641;SDS011;52340;-6.720;108.544;2022-07-10T05:55:14;14.23;;;9.80;;
65641;SDS011;52340;-6.720;108.544;2022-07-10T05:56:17;16.88;;;9.75;;
65641;SDS011;52340;-6.720;108.544;2022-07-10T05:57:19;12.90;;;9.07;;
65641;SDS011;52340;-6.720;108.544;2022-07-10T05:58:21;15.23;;;10.15;;
65641;SDS011;52340;-6.720;108.544;2022-07-10T05:59:26;15.00;;;9.93;;
65641;SDS011;52340;-6.720;108.544;2022-07-10T06:00:29;14.57;;;9.90;;